sensor_id;sensor_type;location;lat;lon;timestamp;P1;durP1;ratioP1;P2;durP2;ratioP2
42364;SDS011;28498;54.400;18.566;2024-01-10T00:00:23;13.38;;;6.05;;
42364;SDS011;28498;54.400;18.566;2024-01-10T00:02:50;15.55;;;6.20;;
42364;SDS011;28498;54.400;18.566;2024-01-10T00:05:17;12.35;;;5.95;;
42364;SDS011;28498;54.400;18.566;2024-01-10T00:07:46;14.25;;;7.05;;
42364;SDS011;28498;54.400;18.566;2024-01-10T00:10:13;13.35;;;6.00;;
42364;SDS011;28498;54.400;18.566;2024-01-10T00:12:40;13.50;;;6.28;;
42364;SDS011;28498;54.400;18.566;2024-01-10T00:15:10;11.48;;;5.47;;
42364;SDS011;28498;54.400;18.566;2024-01-10T00:17:37;13.23;;;6.13;;
42364;SDS011;28498;54.400;18.566;2024-01-10T00:20:07;15.00;;;7.20;;
42364;SDS011;28498;54.400;18.566;2024-01-10T00:22:34;14.35;;;5.88;;
42364;SDS011;28498;54.400;18.566;2024-01-10T00:25:02;13.55;;;5.82;;
42364;SDS011;28498;54.400;18.566;2024-01-10T00:27:29;11.60;;;6.18;;
42364;SDS011;28498;54.400;18.566;2024-01-10T00:29:56;12.80;;;6.28;;
42364;SDS011;28498;54.400;18.566;2024-01-10T00:32:23;13.43;;;6.45;;
42364;SDS011;28498;54.400;18.566;2024-01-10T00:34:50;13.10;;;6.30;;
42364;SDS011;28498;54.400;18.566;2024-01-10T00:37:17;14.05;;;6.25;;
42364;SDS011;28498;54.400;18.566;2024-01-10T00:39:44;13.77;;;6.35;;
42364;SDS011;28498;54.400;18.566;2024-01-10T00:42:11;17.25;;;6.25;;
42364;SDS011;28498;54.400;18.566;2024-01-10T00:44:38;15.45;;;6.75;;
42364;SDS011;28498;54.400;18.566;2024-01-10T00:47:05;13.45;;;6.15;;
42364;SDS011;28498;54.400;18.566;2024-01-10T00:49:33;14.68;;;5.97;;
42364;SDS011;28498;54.400;18.566;2024-01-10T00:52:00;11.95;;;6.00;;
42364;SDS011;28498;54.400;18.566;2024-01-10T00:54:27;13.73;;;6.20;;
42364;SDS011;28498;54.400;18.566;2024-01-10T00:56:54;11.00;;;6.18;;
42364;SDS011;28498;54.400;18.566;2024-01-10T00:59:21;10.27;;;5.40;;
42364;SDS011;28498;54.400;18.566;2024-01-10T01:01:48;9.20;;;5.15;;
42364;SDS011;28498;54.400;18.566;2024-01-10T01:04:15;13.20;;;5.82;;
42364;SDS011;28498;54.400;18.566;2024-01-10T01:06:42;12.20;;;6.15;;
42364;SDS011;28498;54.400;18.566;2024-01-10T01:09:09;10.65;;;5.22;;
42364;SDS011;28498;54.400;18.566;2024-01-10T01:11:36;12.13;;;6.03;;
42364;SDS011;28498;54.400;18.566;2024-01-10T01:14:03;11.20;;;5.80;;
42364;SDS011;28498;54.400;18.566;2024-01-10T01:16:30;11.55;;;5.93;;
42364;SDS011;28498;54.400;18.566;2024-01-10T01:18:58;11.93;;;5.70;;
42364;SDS011;28498;54.400;18.566;2024-01-10T01:21:25;10.57;;;5.47;;
42364;SDS011;28498;54.400;18.566;2024-01-10T01:23:52;10.05;;;5.30;;
42364;SDS011;28498;54.400;18.566;2024-01-10T01:26:19;12.15;;;5.00;;
42364;SDS011;28498;54.400;18.566;2024-01-10T01:28:46;13.02;;;5.60;;
42364;SDS011;28498;54.400;18.566;2024-01-10T01:31:13;11.15;;;5.53;;
42364;SDS011;28498;54.400;18.566;2024-01-10T01:33:40;10.30;;;4.78;;
42364;SDS011;28498;54.400;18.566;2024-01-10T01:36:07;8.73;;;4.82;;
42364;SDS011;28498;54.400;18.566;2024-01-10T01:38:35;11.60;;;5.78;;
42364;SDS011;28498;54.400;18.566;2024-01-10T01:41:02;11.18;;;5.00;;
42364;SDS011;28498;54.400;18.566;2024-01-10T01:43:29;12.95;;;5.93;;
42364;SDS011;28498;54.400;18.566;2024-01-10T01:45:56;8.60;;;4.85;;
42364;SDS011;28498;54.400;18.566;2024-01-10T01:48:23;12.48;;;6.03;;
42364;SDS011;28498;54.400;18.566;2024-01-10T01:50:55;11.68;;;5.57;;
42364;SDS011;28498;54.400;18.566;2024-01-10T01:53:24;10.73;;;5.00;;
42364;SDS011;28498;54.400;18.566;2024-01-10T01:55:52;11.63;;;5.80;;
42364;SDS011;28498;54.400;18.566;2024-01-10T01:58:19;12.13;;;5.95;;
42364;SDS011;28498;54.400;18.566;2024-01-10T02:00:48;11.38;;;6.28;;
42364;SDS011;28498;54.400;18.566;2024-01-10T02:03:16;10.07;;;5.72;;
42364;SDS011;28498;54.400;18.566;2024-01-10T02:05:44;10.45;;;5.47;;
42364;SDS011;28498;54.400;18.566;2024-01-10T02:08:12;13.80;;;6.97;;
42364;SDS011;28498;54.400;18.566;2024-01-10T02:10:39;10.68;;;4.97;;
42364;SDS011;28498;54.400;18.566;2024-01-10T02:13:07;11.88;;;5.53;;
42364;SDS011;28498;54.400;18.566;2024-01-10T02:15:37;11.60;;;5.85;;
42364;SDS011;28498;54.400;18.566;2024-01-10T02:18:05;10.75;;;5.30;;
42364;SDS011;28498;54.400;18.566;2024-01-10T02:20:32;12.68;;;6.18;;
42364;SDS011;28498;54.400;18.566;2024-01-10T02:22:59;13.10;;;6.50;;
42364;SDS011;28498;54.400;18.566;2024-01-10T02:25:27;15.20;;;7.60;;
42364;SDS011;28498;54.400;18.566;2024-01-10T02:27:54;13.15;;;6.63;;
42364;SDS011;28498;54.400;18.566;2024-01-10T02:30:21;11.57;;;6.30;;
42364;SDS011;28498;54.400;18.566;2024-01-10T02:32:48;14.00;;;6.18;;
42364;SDS011;28498;54.400;18.566;2024-01-10T02:35:15;10.50;;;5.57;;
42364;SDS011;28498;54.400;18.566;2024-01-10T02:37:42;11.00;;;5.55;;
42364;SDS011;28498;54.400;18.566;2024-01-10T02:40:09;12.10;;;5.82;;
42364;SDS011;28498;54.400;18.566;2024-01-10T02:42:37;11.63;;;5.78;;
42364;SDS011;28498;54.400;18.566;2024-01-10T02:45:06;10.35;;;5.43;;
42364;SDS011;28498;54.400;18.566;2024-01-10T02:47:33;10.93;;;5.85;;
42364;SDS011;28498;54.400;18.566;2024-01-10T02:50:01;11.48;;;5.50;;
42364;SDS011;28498;54.400;18.566;2024-01-10T02:52:28;11.18;;;6.55;;
42364;SDS011;28498;54.400;18.566;2024-01-10T02:54:55;11.70;;;5.43;;
42364;SDS011;28498;54.400;18.566;2024-01-10T02:57:22;9.70;;;5.28;;
42364;SDS011;28498;54.400;18.566;2024-01-10T02:59:49;7.85;;;4.57;;
42364;SDS011;28498;54.400;18.566;2024-01-10T03:02:16;9.18;;;5.18;;
42364;SDS011;28498;54.400;18.566;2024-01-10T03:04:43;9.20;;;5.10;;
42364;SDS011;28498;54.400;18.566;2024-01-10T03:07:11;10.82;;;4.80;;
42364;SDS011;28498;54.400;18.566;2024-01-10T03:09:38;10.10;;;5.47;;
42364;SDS011;28498;54.400;18.566;2024-01-10T03:12:05;9.30;;;4.80;;
42364;SDS011;28498;54.400;18.566;2024-01-10T03:14:33;11.02;;;5.28;;
42364;SDS011;28498;54.400;18.566;2024-01-10T03:17:00;11.30;;;5.63;;
42364;SDS011;28498;54.400;18.566;2024-01-10T03:19:29;11.23;;;6.18;;
42364;SDS011;28498;54.400;18.566;2024-01-10T03:21:56;9.82;;;5.88;;
42364;SDS011;28498;54.400;18.566;2024-01-10T03:24:23;9.35;;;5.25;;
42364;SDS011;28498;54.400;18.566;2024-01-10T03:26:53;11.77;;;5.30;;
42364;SDS011;28498;54.400;18.566;2024-01-10T03:29:20;13.98;;;5.90;;
42364;SDS011;28498;54.400;18.566;2024-01-10T03:31:48;10.25;;;5.22;;
42364;SDS011;28498;54.400;18.566;2024-01-10T03:34:15;10.65;;;5.88;;
42364;SDS011;28498;54.400;18.566;2024-01-10T03:36:44;12.15;;;5.63;;
42364;SDS011;28498;54.400;18.566;2024-01-10T03:39:11;11.38;;;5.85;;
42364;SDS011;28498;54.400;18.566;2024-01-10T03:41:38;12.68;;;6.22;;
42364;SDS011;28498;54.400;18.566;2024-01-10T03:44:05;14.35;;;6.13;;
42364;SDS011;28498;54.400;18.566;2024-01-10T03:46:32;10.63;;;5.93;;
42364;SDS011;28498;54.400;18.566;2024-01-10T03:49:00;10.85;;;5.68;;
42364;SDS011;28498;54.400;18.566;2024-01-10T03:51:27;10.73;;;5.53;;
42364;SDS011;28498;54.400;18.566;2024-01-10T03:53:55;13.02;;;6.07;;
42364;SDS011;28498;54.400;18.566;2024-01-10T03:56:22;9.98;;;4.80;;
42364;SDS011;28498;54.400;18.566;2024-01-10T03:58:49;8.95;;;4.93;;
42364;SDS011;28498;54.400;18.566;2024-01-10T04:01:16;10.73;;;5.38;;
42364;SDS011;28498;54.400;18.566;2024-01-10T04:03:48;10.65;;;5.70;;
42364;SDS011;28498;54.400;18.566;2024-01-10T04:06:14;9.25;;;5.07;;
42364;SDS011;28498;54.400;18.566;2024-01-10T04:08:42;13.13;;;6.05;;
42364;SDS011;28498;54.400;18.566;2024-01-10T04:11:09;10.60;;;5.32;;
42364;SDS011;28498;54.400;18.566;2024-01-10T04:13:36;9.30;;;5.00;;
42364;SDS011;28498;54.400;18.566;2024-01-10T04:16:03;9.32;;;4.93;;
42364;SDS011;28498;54.400;18.566;2024-01-10T04:18:30;8.43;;;4.82;;
42364;SDS011;28498;54.400;18.566;2024-01-10T04:20:58;8.88;;;4.97;;
42364;SDS011;28498;54.400;18.566;2024-01-10T04:23:25;9.40;;;5.07;;
42364;SDS011;28498;54.400;18.566;2024-01-10T04:25:52;10.88;;;5.55;;
42364;SDS011;28498;54.400;18.566;2024-01-10T04:28:19;10.35;;;5.18;;
42364;SDS011;28498;54.400;18.566;2024-01-10T04:30:46;9.90;;;5.38;;
42364;SDS011;28498;54.400;18.566;2024-01-10T04:33:13;8.32;;;4.75;;
42364;SDS011;28498;54.400;18.566;2024-01-10T04:35:40;9.10;;;5.03;;
42364;SDS011;28498;54.400;18.566;2024-01-10T04:38:07;12.10;;;5.20;;
42364;SDS011;28498;54.400;18.566;2024-01-10T04:40:34;11.30;;;5.75;;
42364;SDS011;28498;54.400;18.566;2024-01-10T04:43:01;10.05;;;4.88;;
42364;SDS011;28498;54.400;18.566;2024-01-10T04:45:28;9.60;;;4.85;;
42364;SDS011;28498;54.400;18.566;2024-01-10T04:47:55;9.32;;;4.88;;
42364;SDS011;28498;54.400;18.566;2024-01-10T04:50:22;9.95;;;5.60;;
42364;SDS011;28498;54.400;18.566;2024-01-10T04:52:49;8.82;;;3.95;;
42364;SDS011;28498;54.400;18.566;2024-01-10T04:55:16;9.43;;;4.90;;
42364;SDS011;28498;54.400;18.566;2024-01-10T04:57:43;7.75;;;4.53;;
42364;SDS011;28498;54.400;18.566;2024-01-10T05:00:10;10.30;;;4.53;;
42364;SDS011;28498;54.400;18.566;2024-01-10T05:02:38;8.45;;;4.57;;
42364;SDS011;28498;54.400;18.566;2024-01-10T05:05:05;10.80;;;5.20;;
42364;SDS011;28498;54.400;18.566;2024-01-10T05:07:33;7.78;;;4.15;;
42364;SDS011;28498;54.400;18.566;2024-01-10T05:10:00;6.95;;;4.13;;
42364;SDS011;28498;54.400;18.566;2024-01-10T05:12:27;7.80;;;3.58;;
42364;SDS011;28498;54.400;18.566;2024-01-10T05:14:54;6.60;;;3.63;;
42364;SDS011;28498;54.400;18.566;2024-01-10T05:17:21;6.63;;;3.50;;
42364;SDS011;28498;54.400;18.566;2024-01-10T05:19:48;6.40;;;3.80;;
42364;SDS011;28498;54.400;18.566;2024-01-10T05:22:16;9.15;;;4.35;;
42364;SDS011;28498;54.400;18.566;2024-01-10T05:24:43;7.50;;;4.03;;
42364;SDS011;28498;54.400;18.566;2024-01-10T05:27:10;6.03;;;3.35;;
42364;SDS011;28498;54.400;18.566;2024-01-10T05:29:37;9.15;;;3.58;;
42364;SDS011;28498;54.400;18.566;2024-01-10T05:32:05;5.78;;;3.90;;
42364;SDS011;28498;54.400;18.566;2024-01-10T05:34:32;6.95;;;4.03;;
42364;SDS011;28498;54.400;18.566;2024-01-10T05:37:00;7.85;;;3.92;;
42364;SDS011;28498;54.400;18.566;2024-01-10T05:39:27;8.60;;;3.70;;
42364;SDS011;28498;54.400;18.566;2024-01-10T05:41:57;7.57;;;4.15;;
42364;SDS011;28498;54.400;18.566;2024-01-10T05:44:24;8.82;;;4.20;;
42364;SDS011;28498;54.400;18.566;2024-01-10T05:46:51;6.30;;;3.60;;
42364;SDS011;28498;54.400;18.566;2024-01-10T05:49:18;7.25;;;4.13;;
42364;SDS011;28498;54.400;18.566;2024-01-10T05:51:45;7.60;;;4.57;;
42364;SDS011;28498;54.400;18.566;2024-01-10T05:54:13;6.35;;;3.42;;
42364;SDS011;28498;54.400;18.566;2024-01-10T05:56:39;6.60;;;4.00;;
42364;SDS011;28498;54.400;18.566;2024-01-10T05:59:07;7.70;;;3.88;;
42364;SDS011;28498;54.400;18.566;2024-01-10T06:01:34;7.50;;;4.20;;
42364;SDS011;28498;54.400;18.566;2024-01-10T06:04:01;8.18;;;4.05;;
42364;SDS011;28498;54.400;18.566;2024-01-10T06:06:28;9.85;;;4.97;;
42364;SDS011;28498;54.400;18.566;2024-01-10T06:08:55;7.80;;;4.75;;
42364;SDS011;28498;54.400;18.566;2024-01-10T06:11:22;8.27;;;5.15;;
42364;SDS011;28498;54.400;18.566;2024-01-10T06:13:49;7.85;;;4.30;;
42364;SDS011;28498;54.400;18.566;2024-01-10T06:16:22;9.48;;;5.05;;
42364;SDS011;28498;54.400;18.566;2024-01-10T06:18:49;9.88;;;4.95;;
42364;SDS011;28498;54.400;18.566;2024-01-10T06:21:18;9.85;;;5.20;;
42364;SDS011;28498;54.400;18.566;2024-01-10T06:23:45;10.85;;;4.68;;
42364;SDS011;28498;54.400;18.566;2024-01-10T06:26:13;7.72;;;4.20;;
42364;SDS011;28498;54.400;18.566;2024-01-10T06:28:40;9.88;;;5.13;;
42364;SDS011;28498;54.400;18.566;2024-01-10T06:31:07;9.10;;;5.03;;
42364;SDS011;28498;54.400;18.566;2024-01-10T06:33:38;10.98;;;5.50;;
42364;SDS011;28498;54.400;18.566;2024-01-10T06:36:05;10.10;;;5.78;;
42364;SDS011;28498;54.400;18.566;2024-01-10T06:38:32;10.98;;;5.78;;
42364;SDS011;28498;54.400;18.566;2024-01-10T06:40:59;10.18;;;5.78;;
42364;SDS011;28498;54.400;18.566;2024-01-10T06:43:26;8.90;;;5.40;;
42364;SDS011;28498;54.400;18.566;2024-01-10T06:45:53;10.35;;;5.50;;
42364;SDS011;28498;54.400;18.566;2024-01-10T06:48:22;10.00;;;5.45;;
42364;SDS011;28498;54.400;18.566;2024-01-10T06:50:49;11.15;;;5.18;;
42364;SDS011;28498;54.400;18.566;2024-01-10T06:53:16;9.30;;;5.38;;
42364;SDS011;28498;54.400;18.566;2024-01-10T06:55:43;9.48;;;5.65;;
42364;SDS011;28498;54.400;18.566;2024-01-10T06:58:10;12.13;;;6.20;;
42364;SDS011;28498;54.400;18.566;2024-01-10T07:00:37;11.50;;;6.20;;
42364;SDS011;28498;54.400;18.566;2024-01-10T07:03:05;9.05;;;5.30;;
42364;SDS011;28498;54.400;18.566;2024-01-10T07:05:32;8.93;;;5.35;;
42364;SDS011;28498;54.400;18.566;2024-01-10T07:07:59;11.25;;;5.68;;
42364;SDS011;28498;54.400;18.566;2024-01-10T07:10:29;11.60;;;5.38;;
42364;SDS011;28498;54.400;18.566;2024-01-10T07:12:56;9.23;;;5.10;;
42364;SDS011;28498;54.400;18.566;2024-01-10T07:15:24;9.35;;;4.47;;
42364;SDS011;28498;54.400;18.566;2024-01-10T07:17:51;10.70;;;4.28;;
42364;SDS011;28498;54.400;18.566;2024-01-10T07:20:18;10.40;;;4.63;;
42364;SDS011;28498;54.400;18.566;2024-01-10T07:22:45;5.15;;;2.88;;
42364;SDS011;28498;54.400;18.566;2024-01-10T07:25:12;8.57;;;4.43;;
42364;SDS011;28498;54.400;18.566;2024-01-10T07:27:43;7.70;;;4.18;;
42364;SDS011;28498;54.400;18.566;2024-01-10T07:30:11;8.60;;;4.30;;
42364;SDS011;28498;54.400;18.566;2024-01-10T07:32:41;8.68;;;5.53;;
42364;SDS011;28498;54.400;18.566;2024-01-10T07:35:09;8.23;;;4.43;;
42364;SDS011;28498;54.400;18.566;2024-01-10T07:37:37;10.05;;;3.90;;
42364;SDS011;28498;54.400;18.566;2024-01-10T07:40:05;8.43;;;4.82;;
42364;SDS011;28498;54.400;18.566;2024-01-10T07:42:37;8.35;;;4.32;;
42364;SDS011;28498;54.400;18.566;2024-01-10T07:45:06;5.45;;;3.47;;
42364;SDS011;28498;54.400;18.566;2024-01-10T07:47:34;9.10;;;4.75;;
42364;SDS011;28498;54.400;18.566;2024-01-10T07:50:08;7.95;;;4.32;;
42364;SDS011;28498;54.400;18.566;2024-01-10T07:52:36;13.45;;;5.63;;
42364;SDS011;28498;54.400;18.566;2024-01-10T07:55:04;8.82;;;4.65;;
42364;SDS011;28498;54.400;18.566;2024-01-10T07:57:32;10.05;;;4.30;;
42364;SDS011;28498;54.400;18.566;2024-01-10T08:00:05;8.02;;;4.22;;
42364;SDS011;28498;54.400;18.566;2024-01-10T08:02:37;8.35;;;4.07;;
42364;SDS011;28498;54.400;18.566;2024-01-10T08:05:06;7.32;;;4.50;;
42364;SDS011;28498;54.400;18.566;2024-01-10T08:07:37;7.25;;;3.80;;
42364;SDS011;28498;54.400;18.566;2024-01-10T08:10:05;8.65;;;4.30;;
42364;SDS011;28498;54.400;18.566;2024-01-10T08:12:34;6.47;;;3.42;;
42364;SDS011;28498;54.400;18.566;2024-01-10T08:15:05;7.90;;;3.90;;
42364;SDS011;28498;54.400;18.566;2024-01-10T08:17:33;7.18;;;4.05;;
42364;SDS011;28498;54.400;18.566;2024-01-10T08:20:01;6.82;;;4.70;;
42364;SDS011;28498;54.400;18.566;2024-01-10T08:22:30;8.20;;;3.92;;
42364;SDS011;28498;54.400;18.566;2024-01-10T08:24:57;7.78;;;3.90;;
42364;SDS011;28498;54.400;18.566;2024-01-10T08:27:25;11.98;;;4.57;;
42364;SDS011;28498;54.400;18.566;2024-01-10T08:29:52;8.57;;;4.50;;
42364;SDS011;28498;54.400;18.566;2024-01-10T08:32:19;6.93;;;4.30;;
42364;SDS011;28498;54.400;18.566;2024-01-10T08:34:48;8.75;;;5.00;;
42364;SDS011;28498;54.400;18.566;2024-01-10T08:37:15;7.63;;;5.03;;
42364;SDS011;28498;54.400;18.566;2024-01-10T08:39:46;7.90;;;4.75;;
42364;SDS011;28498;54.400;18.566;2024-01-10T08:42:13;8.77;;;4.78;;
42364;SDS011;28498;54.400;18.566;2024-01-10T08:44:40;9.65;;;5.35;;
42364;SDS011;28498;54.400;18.566;2024-01-10T08:47:07;9.20;;;5.45;;
42364;SDS011;28498;54.400;18.566;2024-01-10T08:49:34;10.80;;;5.25;;
42364;SDS011;28498;54.400;18.566;2024-01-10T08:52:02;9.02;;;5.18;;
42364;SDS011;28498;54.400;18.566;2024-01-10T08:54:30;10.85;;;5.45;;
42364;SDS011;28498;54.400;18.566;2024-01-10T08:56:57;10.07;;;5.38;;
42364;SDS011;28498;54.400;18.566;2024-01-10T08:59:25;10.27;;;5.20;;
42364;SDS011;28498;54.400;18.566;2024-01-10T09:01:54;10.15;;;5.38;;
42364;SDS011;28498;54.400;18.566;2024-01-10T09:04:21;10.65;;;5.47;;
42364;SDS011;28498;54.400;18.566;2024-01-10T09:06:48;10.68;;;5.35;;
42364;SDS011;28498;54.400;18.566;2024-01-10T09:09:16;10.15;;;5.32;;
42364;SDS011;28498;54.400;18.566;2024-01-10T09:11:47;11.10;;;5.93;;
42364;SDS011;28498;54.400;18.566;2024-01-10T09:14:15;11.18;;;6.03;;
42364;SDS011;28498;54.400;18.566;2024-01-10T09:16:42;11.82;;;5.70;;
42364;SDS011;28498;54.400;18.566;2024-01-10T09:19:09;9.63;;;5.32;;
42364;SDS011;28498;54.400;18.566;2024-01-10T09:21:38;9.07;;;5.57;;
42364;SDS011;28498;54.400;18.566;2024-01-10T09:24:05;9.13;;;4.85;;
42364;SDS011;28498;54.400;18.566;2024-01-10T09:26:52;11.88;;;5.85;;
42364;SDS011;28498;54.400;18.566;2024-01-10T09:29:20;12.80;;;6.07;;
42364;SDS011;28498;54.400;18.566;2024-01-10T09:31:47;11.75;;;5.53;;
42364;SDS011;28498;54.400;18.566;2024-01-10T09:34:14;9.35;;;5.30;;
42364;SDS011;28498;54.400;18.566;2024-01-10T09:36:41;12.07;;;6.00;;
42364;SDS011;28498;54.400;18.566;2024-01-10T09:39:08;14.32;;;6.80;;
42364;SDS011;28498;54.400;18.566;2024-01-10T09:41:40;12.30;;;5.57;;
42364;SDS011;28498;54.400;18.566;2024-01-10T09:44:13;12.27;;;6.85;;
42364;SDS011;28498;54.400;18.566;2024-01-10T09:46:43;10.65;;;6.28;;
42364;SDS011;28498;54.400;18.566;2024-01-10T09:49:14;13.18;;;6.32;;
42364;SDS011;28498;54.400;18.566;2024-01-10T09:51:41;12.35;;;6.65;;
42364;SDS011;28498;54.400;18.566;2024-01-10T09:54:09;11.43;;;5.15;;
42364;SDS011;28498;54.400;18.566;2024-01-10T09:56:36;10.85;;;6.13;;
42364;SDS011;28498;54.400;18.566;2024-01-10T09:59:03;12.68;;;6.13;;
42364;SDS011;28498;54.400;18.566;2024-01-10T10:01:32;13.25;;;6.78;;
42364;SDS011;28498;54.400;18.566;2024-01-10T10:04:00;12.00;;;5.05;;
42364;SDS011;28498;54.400;18.566;2024-01-10T10:06:28;10.88;;;6.05;;
42364;SDS011;28498;54.400;18.566;2024-01-10T10:08:56;10.02;;;5.47;;
42364;SDS011;28498;54.400;18.566;2024-01-10T10:11:23;12.90;;;5.82;;
42364;SDS011;28498;54.400;18.566;2024-01-10T10:13:50;10.38;;;5.65;;
42364;SDS011;28498;54.400;18.566;2024-01-10T10:16:24;9.13;;;5.28;;
42364;SDS011;28498;54.400;18.566;2024-01-10T10:18:55;12.38;;;5.45;;
42364;SDS011;28498;54.400;18.566;2024-01-10T10:21:25;9.25;;;5.50;;
42364;SDS011;28498;54.400;18.566;2024-01-10T10:23:57;12.02;;;5.50;;
42364;SDS011;28498;54.400;18.566;2024-01-10T10:26:26;9.27;;;5.28;;
42364;SDS011;28498;54.400;18.566;2024-01-10T10:28:54;11.52;;;5.80;;
42364;SDS011;28498;54.400;18.566;2024-01-10T10:31:22;9.90;;;5.95;;
42364;SDS011;28498;54.400;18.566;2024-01-10T10:33:50;10.38;;;5.70;;
42364;SDS011;28498;54.400;18.566;2024-01-10T10:36:18;12.45;;;5.90;;
42364;SDS011;28498;54.400;18.566;2024-01-10T10:38:47;11.55;;;5.00;;
42364;SDS011;28498;54.400;18.566;2024-01-10T10:41:15;9.70;;;4.45;;
42364;SDS011;28498;54.400;18.566;2024-01-10T10:43:42;9.45;;;4.65;;
42364;SDS011;28498;54.400;18.566;2024-01-10T10:46:10;6.97;;;4.40;;
42364;SDS011;28498;54.400;18.566;2024-01-10T10:48:42;8.00;;;4.15;;
42364;SDS011;28498;54.400;18.566;2024-01-10T10:53:38;8.20;;;4.07;;
42364;SDS011;28498;54.400;18.566;2024-01-10T10:56:08;8.43;;;4.40;;
42364;SDS011;28498;54.400;18.566;2024-01-10T10:58:42;8.52;;;4.47;;
42364;SDS011;28498;54.400;18.566;2024-01-10T11:01:13;9.25;;;4.75;;
42364;SDS011;28498;54.400;18.566;2024-01-10T11:03:42;10.80;;;4.95;;
42364;SDS011;28498;54.400;18.566;2024-01-10T11:06:14;8.23;;;5.03;;
42364;SDS011;28498;54.400;18.566;2024-01-10T11:08:51;8.45;;;5.03;;
42364;SDS011;28498;54.400;18.566;2024-01-10T11:11:29;8.05;;;4.70;;
42364;SDS011;28498;54.400;18.566;2024-01-10T11:16:59;10.90;;;5.80;;
42364;SDS011;28498;54.400;18.566;2024-01-10T11:22:20;10.32;;;5.75;;
42364;SDS011;28498;54.400;18.566;2024-01-10T11:25:09;9.30;;;4.68;;
42364;SDS011;28498;54.400;18.566;2024-01-10T11:27:37;13.60;;;6.10;;
42364;SDS011;28498;54.400;18.566;2024-01-10T11:30:04;8.88;;;5.75;;
42364;SDS011;28498;54.400;18.566;2024-01-10T11:32:32;8.18;;;4.43;;
42364;SDS011;28498;54.400;18.566;2024-01-10T11:35:05;8.52;;;4.25;;
42364;SDS011;28498;54.400;18.566;2024-01-10T11:40:16;9.32;;;4.95;;
42364;SDS011;28498;54.400;18.566;2024-01-10T11:43:13;10.55;;;5.03;;
42364;SDS011;28498;54.400;18.566;2024-01-10T11:45:54;13.30;;;5.25;;
42364;SDS011;28498;54.400;18.566;2024-01-10T11:48:25;8.30;;;4.88;;
42364;SDS011;28498;54.400;18.566;2024-01-10T11:50:56;8.60;;;4.97;;
42364;SDS011;28498;54.400;18.566;2024-01-10T11:53:44;8.93;;;5.32;;
42364;SDS011;28498;54.400;18.566;2024-01-10T11:56:17;8.50;;;4.50;;
42364;SDS011;28498;54.400;18.566;2024-01-10T11:59:02;10.68;;;5.63;;
42364;SDS011;28498;54.400;18.566;2024-01-10T12:01:38;10.35;;;5.45;;
42364;SDS011;28498;54.400;18.566;2024-01-10T12:04:06;8.55;;;4.47;;
42364;SDS011;28498;54.400;18.566;2024-01-10T12:06:45;10.43;;;5.47;;
42364;SDS011;28498;54.400;18.566;2024-01-10T12:09:14;10.98;;;5.35;;
42364;SDS011;28498;54.400;18.566;2024-01-10T12:11:41;10.07;;;5.65;;
42364;SDS011;28498;54.400;18.566;2024-01-10T12:14:08;8.77;;;4.50;;
42364;SDS011;28498;54.400;18.566;2024-01-10T12:16:36;10.63;;;5.47;;
42364;SDS011;28498;54.400;18.566;2024-01-10T12:19:03;10.43;;;4.93;;
42364;SDS011;28498;54.400;18.566;2024-01-10T12:21:31;12.05;;;5.53;;
42364;SDS011;28498;54.400;18.566;2024-01-10T12:23:58;11.25;;;5.72;;
42364;SDS011;28498;54.400;18.566;2024-01-10T12:26:26;10.05;;;5.68;;
42364;SDS011;28498;54.400;18.566;2024-01-10T12:28:54;10.18;;;5.93;;
42364;SDS011;28498;54.400;18.566;2024-01-10T12:31:23;13.07;;;6.15;;
42364;SDS011;28498;54.400;18.566;2024-01-10T12:33:51;9.48;;;5.22;;
42364;SDS011;28498;54.400;18.566;2024-01-10T12:36:18;10.98;;;5.47;;
42364;SDS011;28498;54.400;18.566;2024-01-10T12:38:46;11.70;;;5.97;;
42364;SDS011;28498;54.400;18.566;2024-01-10T12:41:16;11.75;;;5.93;;
42364;SDS011;28498;54.400;18.566;2024-01-10T12:43:54;11.25;;;5.50;;
42364;SDS011;28498;54.400;18.566;2024-01-10T12:46:22;11.00;;;5.15;;
42364;SDS011;28498;54.400;18.566;2024-01-10T12:49:02;10.35;;;5.47;;
42364;SDS011;28498;54.400;18.566;2024-01-10T12:51:30;11.20;;;5.95;;
42364;SDS011;28498;54.400;18.566;2024-01-10T12:53:58;10.95;;;5.38;;
42364;SDS011;28498;54.400;18.566;2024-01-10T12:56:26;13.88;;;5.25;;
42364;SDS011;28498;54.400;18.566;2024-01-10T12:58:54;10.73;;;5.03;;
42364;SDS011;28498;54.400;18.566;2024-01-10T13:01:23;13.32;;;6.10;;
42364;SDS011;28498;54.400;18.566;2024-01-10T13:03:50;13.38;;;5.35;;
42364;SDS011;28498;54.400;18.566;2024-01-10T13:06:19;9.80;;;5.80;;
42364;SDS011;28498;54.400;18.566;2024-01-10T13:08:49;11.70;;;5.35;;
42364;SDS011;28498;54.400;18.566;2024-01-10T13:11:16;9.25;;;5.93;;
42364;SDS011;28498;54.400;18.566;2024-01-10T13:13:44;14.77;;;5.97;;
42364;SDS011;28498;54.400;18.566;2024-01-10T13:16:11;11.75;;;5.72;;
42364;SDS011;28498;54.400;18.566;2024-01-10T13:18:39;13.50;;;5.78;;
42364;SDS011;28498;54.400;18.566;2024-01-10T13:21:06;11.73;;;6.03;;
42364;SDS011;28498;54.400;18.566;2024-01-10T13:23:34;10.10;;;5.22;;
42364;SDS011;28498;54.400;18.566;2024-01-10T13:26:03;12.27;;;6.40;;
42364;SDS011;28498;54.400;18.566;2024-01-10T13:28:30;14.70;;;7.45;;
42364;SDS011;28498;54.400;18.566;2024-01-10T13:30:57;13.27;;;6.40;;
42364;SDS011;28498;54.400;18.566;2024-01-10T13:33:24;13.70;;;5.28;;
42364;SDS011;28498;54.400;18.566;2024-01-10T13:35:55;14.07;;;6.78;;
42364;SDS011;28498;54.400;18.566;2024-01-10T13:38:22;9.93;;;4.45;;
42364;SDS011;28498;54.400;18.566;2024-01-10T13:40:51;14.70;;;6.53;;
42364;SDS011;28498;54.400;18.566;2024-01-10T13:43:18;12.27;;;6.55;;
42364;SDS011;28498;54.400;18.566;2024-01-10T13:45:45;12.88;;;6.82;;
42364;SDS011;28498;54.400;18.566;2024-01-10T13:48:12;10.82;;;5.53;;
42364;SDS011;28498;54.400;18.566;2024-01-10T13:50:39;14.88;;;6.15;;
42364;SDS011;28498;54.400;18.566;2024-01-10T13:53:06;12.38;;;5.78;;
42364;SDS011;28498;54.400;18.566;2024-01-10T13:55:34;14.35;;;6.40;;
42364;SDS011;28498;54.400;18.566;2024-01-10T13:58:02;12.15;;;5.47;;
42364;SDS011;28498;54.400;18.566;2024-01-10T14:00:29;11.40;;;6.03;;
42364;SDS011;28498;54.400;18.566;2024-01-10T14:02:57;11.77;;;5.57;;
42364;SDS011;28498;54.400;18.566;2024-01-10T14:05:27;12.05;;;5.95;;
42364;SDS011;28498;54.400;18.566;2024-01-10T14:07:55;11.48;;;6.65;;
42364;SDS011;28498;54.400;18.566;2024-01-10T14:10:23;12.05;;;6.15;;
42364;SDS011;28498;54.400;18.566;2024-01-10T14:12:50;12.15;;;6.22;;
42364;SDS011;28498;54.400;18.566;2024-01-10T14:15:18;13.32;;;6.43;;
42364;SDS011;28498;54.400;18.566;2024-01-10T14:17:45;11.40;;;5.85;;
42364;SDS011;28498;54.400;18.566;2024-01-10T14:20:12;12.50;;;6.80;;
42364;SDS011;28498;54.400;18.566;2024-01-10T14:22:40;11.20;;;6.15;;
42364;SDS011;28498;54.400;18.566;2024-01-10T14:25:08;12.55;;;7.25;;
42364;SDS011;28498;54.400;18.566;2024-01-10T14:27:36;12.63;;;6.18;;
42364;SDS011;28498;54.400;18.566;2024-01-10T14:30:05;12.95;;;6.32;;
42364;SDS011;28498;54.400;18.566;2024-01-10T14:32:36;14.45;;;7.88;;
42364;SDS011;28498;54.400;18.566;2024-01-10T14:35:04;16.58;;;8.40;;
42364;SDS011;28498;54.400;18.566;2024-01-10T14:37:34;13.18;;;7.30;;
42364;SDS011;28498;54.400;18.566;2024-01-10T14:40:03;11.43;;;6.13;;
42364;SDS011;28498;54.400;18.566;2024-01-10T14:42:31;14.25;;;7.38;;